Mozajsk, Russia
Current Conditions -  °F | °C
As of 12:30 AM on Thursday 27 Nov 2014 (Local Time) from UUWW Reporting Station
Haze Haze  
Wind Chill: 18°   Ceiling: 200
Heat Index: 18°   Visibility: 1.3mi
Dew Point: 16°   Wind: 0mph
Humidity: 93%   Direction: NA
Pressure: 30.42"   Gusts: NA
Location:  55.49°N, 36.04°E
Report Text: UUWW 262130Z 00000MPS 2100 BR OVC002 M08/M09 Q1030 24290050TEMPO 0600 FZFG
Loading
Personal Weather Stations






























Interactive Weather Map New forecast layout! Learn more

10-Day Weather Forecast

Advertisements
Track Severe Weather on mobile